Everett, Washington
Current Conditions -  °F | °C
As of 7:53 AM on Friday 24 Oct 2014 (Local Time) from KPAE Reporting Station
Clear Clear  
Wind Chill: 45°   Ceiling: Unl
Heat Index: 49°   Visibility: 10mi
Dew Point: 42°   Wind: 9mph
Humidity: 77%   Direction: 120°ESE
Pressure: 30.04"   Gusts: NA
Location:  47.98°N, 122.2°W
Report Text: KPAE 241453Z 12008KT 10SM CLR 09/06 A3004 RMK AO2 SLP175 T00940056 53004
Loading
Personal Weather Stations






























Interactive Weather Map
Tropical Storm Tracking
New forecast layout! Learn more

10-Day Weather Forecast

Advertisements
Track Severe Weather on mobile